createdAt,value
2022-11-13T00:00:56.384Z,3.82
2022-11-13T00:03:23.189Z,3.86
2022-11-13T00:05:58.896Z,3.85
2022-11-13T00:08:25.679Z,3.82
2022-11-13T00:10:52.400Z,3.81
2022-11-13T00:13:18.924Z,3.79
2022-11-13T00:15:45.435Z,3.67
2022-11-13T00:18:11.929Z,3.55
2022-11-13T00:20:38.553Z,3.49
2022-11-13T00:23:06.129Z,3.46
2022-11-13T00:25:35.375Z,3.41
2022-11-13T00:28:01.859Z,3.34
2022-11-13T00:30:28.364Z,3.30
2022-11-13T00:32:54.855Z,3.33
2022-11-13T00:35:21.393Z,3.30
2022-11-13T00:37:47.865Z,3.33
2022-11-13T00:40:14.354Z,3.33
2022-11-13T00:42:40.823Z,3.35
2022-11-13T00:45:09.120Z,3.31
2022-11-13T00:47:35.705Z,3.23
2022-11-13T00:50:02.765Z,3.19
2022-11-13T00:52:29.521Z,3.15
2022-11-13T00:54:56.004Z,3.23
2022-11-13T00:57:22.560Z,3.24
2022-11-13T00:59:49.090Z,3.26
2022-11-13T01:02:15.645Z,3.27
2022-11-13T01:04:42.857Z,3.21
2022-11-13T01:07:09.448Z,3.16
2022-11-13T01:09:35.974Z,3.12
2022-11-13T01:12:02.482Z,3.08
2022-11-13T01:14:28.973Z,2.92
2022-11-13T01:16:55.473Z,2.85
2022-11-13T01:19:21.965Z,2.86
2022-11-13T01:21:48.476Z,2.82
2022-11-13T01:24:14.969Z,2.77
2022-11-13T01:26:41.493Z,2.74
2022-11-13T01:29:10.313Z,2.65
2022-11-13T01:31:36.786Z,2.61
2022-11-13T01:34:03.354Z,2.59
2022-11-13T01:36:29.992Z,2.67
2022-11-13T01:38:57.309Z,2.73
2022-11-13T01:41:30.169Z,2.75
2022-11-13T01:43:57.068Z,2.70
2022-11-13T01:46:29.589Z,2.70
2022-11-13T01:48:58.865Z,2.67
2022-11-13T01:51:34.130Z,2.63
2022-11-13T01:54:05.048Z,2.63
2022-11-13T01:56:31.926Z,2.58
2022-11-13T01:59:12.965Z,2.60
2022-11-13T02:01:39.592Z,2.60
2022-11-13T02:04:06.179Z,2.51
2022-11-13T02:06:42.565Z,2.44
2022-11-13T02:09:10.443Z,2.38
2022-11-13T02:11:38.272Z,2.35
2022-11-13T02:14:06.150Z,2.35
2022-11-13T02:16:34.686Z,2.33
2022-11-13T02:19:06.080Z,2.37
2022-11-13T02:21:43.820Z,2.33
2022-11-13T02:24:25.236Z,2.36
2022-11-13T02:26:54.519Z,2.42
2022-11-13T02:29:21.674Z,2.36
2022-11-13T02:31:48.148Z,2.21
2022-11-13T02:34:14.672Z,2.17
2022-11-13T02:36:41.284Z,2.15
2022-11-13T02:39:11.271Z,2.11
2022-11-13T02:41:38.563Z,2.09
2022-11-13T02:44:06.796Z,2.10
2022-11-13T02:46:33.986Z,2.08
2022-11-13T02:49:00.556Z,2.05
2022-11-13T02:51:27.135Z,2.02
2022-11-13T02:53:53.638Z,1.97
2022-11-13T02:56:20.195Z,1.91
2022-11-13T02:58:46.714Z,1.91
2022-11-13T03:01:13.319Z,1.96
2022-11-13T03:06:26.313Z,2.05
2022-11-13T03:08:53.045Z,2.12
2022-11-13T03:11:19.612Z,2.15
2022-11-13T03:13:46.321Z,2.22
2022-11-13T03:16:15.231Z,2.31
2022-11-13T03:18:41.939Z,2.38
2022-11-13T03:21:11.261Z,2.41
2022-11-13T03:23:38.334Z,2.46
2022-11-13T03:26:10.807Z,2.54
2022-11-13T03:28:37.722Z,2.63
2022-11-13T03:31:05.524Z,2.57
2022-11-13T03:33:32.440Z,2.52
2022-11-13T03:35:58.968Z,2.41
2022-11-13T03:38:25.956Z,2.30
2022-11-13T03:40:52.882Z,2.27
2022-11-13T03:43:19.924Z,2.23
2022-11-13T03:45:47.516Z,2.06
2022-11-13T03:48:15.253Z,2.04
2022-11-13T03:50:52.140Z,2.03
2022-11-13T03:53:18.694Z,2.01
2022-11-13T03:55:45.443Z,2.01
2022-11-13T03:58:11.957Z,2.04
2022-11-13T04:00:40.198Z,2.11
2022-11-13T04:03:06.855Z,2.19
2022-11-13T04:05:33.684Z,2.22
2022-11-13T04:08:00.340Z,2.24
2022-11-13T04:10:27.023Z,2.22
2022-11-13T04:12:53.581Z,2.19
2022-11-13T04:15:20.121Z,2.18
2022-11-13T04:17:46.649Z,2.21
2022-11-13T04:20:13.114Z,2.23
2022-11-13T04:22:39.673Z,2.25
2022-11-13T04:25:06.772Z,2.30
2022-11-13T04:27:33.350Z,2.33
2022-11-13T04:29:59.822Z,2.40
2022-11-13T04:32:26.446Z,2.50
2022-11-13T04:34:52.979Z,2.57
2022-11-13T04:37:19.489Z,2.53
2022-11-13T04:39:45.957Z,2.55
2022-11-13T04:42:30.957Z,2.62
2022-11-13T04:44:57.582Z,2.49
2022-11-13T04:47:24.197Z,2.43
2022-11-13T04:49:50.736Z,2.41
2022-11-13T04:52:17.553Z,2.45
2022-11-13T04:54:44.060Z,2.45
2022-11-13T04:57:10.588Z,2.44
2022-11-13T04:59:37.134Z,2.41
2022-11-13T05:02:03.957Z,2.41
2022-11-13T05:04:30.500Z,2.35
2022-11-13T05:06:57.059Z,2.31
2022-11-13T05:09:23.576Z,2.32
2022-11-13T05:11:50.058Z,2.34
2022-11-13T05:14:16.548Z,2.37
2022-11-13T05:16:43.050Z,2.38
2022-11-13T05:19:09.720Z,2.32
2022-11-13T05:21:38.067Z,2.31
2022-11-13T05:24:05.516Z,2.34
2022-11-13T05:26:32.472Z,2.35
2022-11-13T05:29:00.626Z,2.38
2022-11-13T05:31:27.400Z,2.49
2022-11-13T05:33:54.233Z,2.56
2022-11-13T05:36:22.167Z,2.57
2022-11-13T05:38:49.268Z,2.48
2022-11-13T05:41:21.049Z,2.40
2022-11-13T05:43:48.342Z,2.30
2022-11-13T05:46:21.101Z,2.27
2022-11-13T05:48:51.409Z,2.28
2022-11-13T05:51:21.078Z,2.32
2022-11-13T05:53:47.614Z,2.27
2022-11-13T05:56:16.969Z,2.22
2022-11-13T05:58:43.990Z,2.23
2022-11-13T06:01:18.208Z,2.24
2022-11-13T06:03:45.781Z,2.20
2022-11-13T06:06:20.547Z,2.19
2022-11-13T06:08:48.021Z,2.22
2022-11-13T06:11:17.488Z,2.31
2022-11-13T06:13:44.538Z,2.37
2022-11-13T06:16:18.998Z,2.38
2022-11-13T06:18:46.740Z,2.34
2022-11-13T06:21:20.190Z,2.34
2022-11-13T06:23:47.306Z,2.41
2022-11-13T06:26:20.146Z,2.45
2022-11-13T06:28:47.619Z,2.48
2022-11-13T06:31:18.012Z,2.51
2022-11-13T06:33:45.553Z,2.55
2022-11-13T06:36:14.797Z,2.58
2022-11-13T06:38:41.979Z,2.63
2022-11-13T06:41:11.186Z,2.71
2022-11-13T06:43:37.870Z,2.79
2022-11-13T06:46:06.855Z,2.79
2022-11-13T06:48:34.175Z,2.81
2022-11-13T06:51:03.407Z,2.86
2022-11-13T06:53:30.363Z,2.87
2022-11-13T06:55:57.493Z,2.94
2022-11-13T06:58:24.012Z,2.95
2022-11-13T07:00:52.312Z,2.95
2022-11-13T07:03:21.271Z,2.99
2022-11-13T07:05:48.014Z,3.03
2022-11-13T07:08:14.874Z,3.06
2022-11-13T07:10:42.440Z,3.07
2022-11-13T07:13:09.501Z,3.14
2022-11-13T07:15:40.288Z,3.16
2022-11-13T07:18:07.477Z,3.21
2022-11-13T07:20:34.273Z,3.24
2022-11-13T07:23:02.403Z,3.28
2022-11-13T07:25:30.369Z,3.33
2022-11-13T07:27:57.106Z,3.40
2022-11-13T07:30:23.826Z,3.40
2022-11-13T07:32:50.693Z,3.42
2022-11-13T07:35:17.412Z,3.48
2022-11-13T07:37:44.130Z,3.57
2022-11-13T07:40:11.985Z,3.66
2022-11-13T07:42:39.188Z,3.70
2022-11-13T07:45:06.356Z,3.76
2022-11-13T07:47:32.985Z,3.81
2022-11-13T07:50:05.562Z,3.84
2022-11-13T07:52:37.150Z,3.97
2022-11-13T07:55:03.797Z,4.05
2022-11-13T07:57:30.281Z,4.11
2022-11-13T07:59:56.796Z,4.14
2022-11-13T08:02:26.516Z,4.18
2022-11-13T08:04:53.529Z,4.25
2022-11-13T08:07:20.091Z,4.33
2022-11-13T08:09:46.635Z,4.45
2022-11-13T08:12:13.172Z,4.52
2022-11-13T08:14:41.082Z,4.61
2022-11-13T08:17:07.574Z,4.70
2022-11-13T08:19:34.085Z,4.76
2022-11-13T08:22:00.593Z,4.84
2022-11-13T08:24:27.169Z,4.91
2022-11-13T08:26:53.689Z,4.92
2022-11-13T08:29:20.156Z,5.03
2022-11-13T08:31:46.660Z,5.12
2022-11-13T08:34:14.668Z,5.21
2022-11-13T08:36:41.183Z,5.34
2022-11-13T08:39:08.987Z,5.45
2022-11-13T08:41:35.481Z,5.57
2022-11-13T08:44:01.959Z,5.64
2022-11-13T08:46:28.530Z,5.72
2022-11-13T08:48:55.046Z,5.85
2022-11-13T08:51:21.600Z,5.98
2022-11-13T08:53:48.090Z,6.13
2022-11-13T08:56:14.619Z,6.30
2022-11-13T08:58:41.120Z,6.44
2022-11-13T09:01:07.612Z,6.59
2022-11-13T09:03:36.267Z,6.72
2022-11-13T09:06:07.599Z,6.85
2022-11-13T09:08:35.450Z,6.95
2022-11-13T09:11:04.158Z,7.04
2022-11-13T09:13:31.793Z,7.11
2022-11-13T09:15:59.807Z,7.18
2022-11-13T09:18:27.127Z,7.25
2022-11-13T09:20:54.466Z,7.33
2022-11-13T09:23:21.395Z,7.39
2022-11-13T09:25:48.297Z,7.48
2022-11-13T09:28:14.812Z,7.55
2022-11-13T09:30:41.389Z,7.65
2022-11-13T09:33:07.901Z,7.73
2022-11-13T09:35:34.752Z,7.79
2022-11-13T09:38:11.067Z,7.86
2022-11-13T09:40:43.540Z,7.97
2022-11-13T09:43:33.069Z,8.06
2022-11-13T09:46:06.068Z,8.13
2022-11-13T09:48:38.414Z,8.24
2022-11-13T09:51:21.210Z,8.33
2022-11-13T09:53:48.476Z,8.45
2022-11-13T09:56:34.578Z,8.59
2022-11-13T09:59:23.626Z,8.78
2022-11-13T10:02:00.583Z,9.12
2022-11-13T10:04:57.915Z,9.61
2022-11-13T10:07:49.177Z,10.26
2022-11-13T10:10:40.357Z,11.13
2022-11-13T10:13:13.024Z,12.05
2022-11-13T10:15:42.734Z,12.80
2022-11-13T10:18:20.274Z,13.34
2022-11-13T10:21:09.722Z,14.33
2022-11-13T10:23:38.456Z,14.91
2022-11-13T10:26:27.396Z,15.57
2022-11-13T10:29:02.057Z,16.30
2022-11-13T10:31:28.636Z,16.95
2022-11-13T10:33:57.425Z,17.36
2022-11-13T10:36:36.357Z,17.67
2022-11-13T10:39:07.812Z,18.26
2022-11-13T10:41:46.260Z,18.51
2022-11-13T10:44:21.009Z,18.87
2022-11-13T10:46:47.590Z,19.22
2022-11-13T10:49:22.820Z,19.43
2022-11-13T10:51:57.282Z,19.72
2022-11-13T10:54:29.374Z,19.59
2022-11-13T10:57:17.398Z,19.82
2022-11-13T10:59:45.214Z,20.03
2022-11-13T11:02:30.202Z,20.86
2022-11-13T11:05:16.370Z,21.20
2022-11-13T11:07:43.000Z,21.03
2022-11-13T11:10:33.150Z,21.22
2022-11-13T11:13:07.088Z,21.51
2022-11-13T11:15:44.453Z,21.95
2022-11-13T11:18:39.548Z,22.09
2022-11-13T11:21:17.959Z,22.02
2022-11-13T11:23:54.752Z,22.39
2022-11-13T11:26:39.834Z,22.52
2022-11-13T11:29:28.297Z,22.61
2022-11-13T11:32:14.085Z,22.55
2022-11-13T11:34:44.166Z,22.62
2022-11-13T11:37:22.669Z,23.02
2022-11-13T11:40:13.349Z,22.89
2022-11-13T11:42:45.836Z,22.69
2022-11-13T11:45:26.594Z,23.33
2022-11-13T11:47:54.102Z,23.66
2022-11-13T11:50:56.727Z,23.54
2022-11-13T11:53:33.312Z,23.74
2022-11-13T11:56:09.101Z,23.64
2022-11-13T11:58:47.653Z,23.86
2022-11-13T12:01:37.417Z,23.83
2022-11-13T12:04:21.267Z,23.72
2022-11-13T12:07:26.643Z,24.13
2022-11-13T12:10:17.162Z,24.33
2022-11-13T12:13:13.070Z,24.04
2022-11-13T12:15:48.544Z,24.21
2022-11-13T12:18:53.692Z,24.50
2022-11-13T12:21:27.718Z,24.50
2022-11-13T12:24:20.251Z,24.33
2022-11-13T12:27:01.964Z,24.73
2022-11-13T12:29:59.621Z,24.37
2022-11-13T12:32:42.027Z,24.24
2022-11-13T12:35:19.959Z,24.46
2022-11-13T12:38:09.779Z,24.47
2022-11-13T12:40:44.244Z,24.58
2022-11-13T12:43:20.255Z,24.62
2022-11-13T12:45:53.128Z,24.58
2022-11-13T12:48:19.600Z,24.44
2022-11-13T12:51:01.385Z,24.40
2022-11-13T12:53:44.957Z,24.22
2022-11-13T12:56:29.118Z,24.27
2022-11-13T12:59:31.805Z,24.38
2022-11-13T13:02:32.255Z,24.01
2022-11-13T13:05:10.695Z,23.67
2022-11-13T13:07:46.250Z,23.67
2022-11-13T13:10:12.741Z,23.76
2022-11-13T13:12:49.547Z,23.67
2022-11-13T13:15:30.714Z,23.52
2022-11-13T13:18:08.676Z,23.72
2022-11-13T13:20:40.692Z,23.65
2022-11-13T13:23:12.434Z,23.49
2022-11-13T13:25:39.426Z,23.51
2022-11-13T13:28:08.977Z,23.58
2022-11-13T13:30:51.430Z,23.35
2022-11-13T13:33:21.044Z,23.64
2022-11-13T13:36:09.107Z,23.10
2022-11-13T13:38:41.564Z,22.70
2022-11-13T13:41:18.029Z,22.53
2022-11-13T13:43:50.579Z,22.78
2022-11-13T13:46:21.842Z,22.49
2022-11-13T13:48:51.565Z,22.46
2022-11-13T13:51:37.457Z,21.89
2022-11-13T13:54:07.212Z,21.48
2022-11-13T13:56:39.800Z,21.51
2022-11-13T13:59:14.134Z,21.35
2022-11-13T14:01:40.719Z,21.28
2022-11-13T14:04:18.011Z,21.22
2022-11-13T14:06:50.045Z,21.29
2022-11-13T14:09:25.521Z,21.15
2022-11-13T14:12:09.912Z,20.55
2022-11-13T14:14:39.440Z,20.26
2022-11-13T14:17:06.956Z,20.25
2022-11-13T14:19:33.483Z,19.79
2022-11-13T14:22:02.842Z,19.33
2022-11-13T14:24:29.264Z,18.70
2022-11-13T14:26:57.441Z,18.46
2022-11-13T14:29:34.942Z,18.35
2022-11-13T14:32:14.754Z,18.20
2022-11-13T14:34:46.859Z,17.76
2022-11-13T14:37:22.926Z,17.25
2022-11-13T14:39:50.962Z,16.96
2022-11-13T14:42:29.888Z,16.56
2022-11-13T14:45:11.610Z,16.46
2022-11-13T14:47:38.172Z,15.95
2022-11-13T14:50:21.679Z,15.53
2022-11-13T14:53:06.837Z,15.06
2022-11-13T14:55:37.668Z,14.74
2022-11-13T14:58:05.423Z,14.66
2022-11-13T15:00:37.854Z,14.31
2022-11-13T15:03:06.622Z,13.90
2022-11-13T15:05:33.323Z,13.58
2022-11-13T15:08:00.179Z,13.54
2022-11-13T15:10:29.205Z,13.33
2022-11-13T15:12:55.756Z,13.04
2022-11-13T15:15:30.409Z,12.86
2022-11-13T15:17:57.170Z,12.65
2022-11-13T15:20:27.750Z,12.46
2022-11-13T15:22:55.462Z,12.46
2022-11-13T15:25:24.194Z,12.31
2022-11-13T15:27:51.179Z,12.52
2022-11-13T15:30:18.725Z,12.37
2022-11-13T15:32:45.670Z,11.90
2022-11-13T15:35:18.107Z,11.49
2022-11-13T15:37:45.363Z,11.28
2022-11-13T15:40:13.708Z,11.15
2022-11-13T15:42:41.023Z,10.91
2022-11-13T15:45:14.408Z,10.77
2022-11-13T15:47:41.259Z,10.87
2022-11-13T15:50:16.267Z,10.71
2022-11-13T15:52:47.214Z,10.88
2022-11-13T15:55:27.141Z,10.38
2022-11-13T15:57:55.098Z,10.20
2022-11-13T16:00:26.885Z,10.17
2022-11-13T16:02:55.945Z,9.92
2022-11-13T16:05:25.496Z,9.74
2022-11-13T16:07:53.783Z,9.56
2022-11-13T16:10:21.961Z,9.32
2022-11-13T16:12:48.534Z,9.23
2022-11-13T16:15:19.833Z,9.33
2022-11-13T16:17:53.589Z,9.03
2022-11-13T16:20:20.260Z,8.91
2022-11-13T16:22:46.816Z,8.96
2022-11-13T16:25:16.480Z,8.73
2022-11-13T16:27:43.629Z,8.86
2022-11-13T16:30:20.164Z,8.69
2022-11-13T16:32:47.274Z,8.44
2022-11-13T16:35:18.363Z,8.02
2022-11-13T16:37:44.986Z,7.80
2022-11-13T16:40:26.218Z,7.82
2022-11-13T16:42:53.624Z,7.77
2022-11-13T16:45:21.565Z,7.79
2022-11-13T16:47:48.350Z,7.83
2022-11-13T16:50:24.789Z,7.75
2022-11-13T16:52:51.415Z,7.81
2022-11-13T16:55:17.995Z,7.93
2022-11-13T16:57:44.569Z,7.93
2022-11-13T17:00:15.069Z,7.76
2022-11-13T17:02:42.087Z,7.52
2022-11-13T17:05:13.849Z,7.52
2022-11-13T17:07:40.766Z,7.47
2022-11-13T17:10:30.114Z,7.40
2022-11-13T17:12:57.353Z,7.34
2022-11-13T17:15:23.919Z,7.44
2022-11-13T17:17:50.414Z,7.54
2022-11-13T17:20:19.192Z,7.56
2022-11-13T17:22:48.543Z,7.55
2022-11-13T17:25:16.799Z,7.42
2022-11-13T17:27:43.677Z,7.27
2022-11-13T17:30:12.508Z,7.18
2022-11-13T17:32:39.258Z,7.08
2022-11-13T17:35:06.358Z,7.05
2022-11-13T17:37:32.872Z,6.92
2022-11-13T17:39:59.448Z,6.96
2022-11-13T17:42:28.055Z,6.83
2022-11-13T17:44:54.563Z,6.81
2022-11-13T17:47:21.087Z,6.74
2022-11-13T17:49:47.594Z,6.67
2022-11-13T17:52:14.170Z,6.59
2022-11-13T17:54:40.651Z,6.56
2022-11-13T17:57:10.178Z,6.59
2022-11-13T17:59:36.759Z,6.61
2022-11-13T18:02:03.387Z,6.60
2022-11-13T18:04:29.912Z,6.52
2022-11-13T18:06:56.474Z,6.58
2022-11-13T18:09:23.031Z,6.62
2022-11-13T18:11:49.530Z,6.57
2022-11-13T18:14:16.319Z,6.55
2022-11-13T18:16:42.810Z,6.52
2022-11-13T18:19:11.890Z,6.37
2022-11-13T18:21:40.554Z,6.28
2022-11-13T18:24:15.276Z,6.25
2022-11-13T18:26:42.103Z,6.34
2022-11-13T18:29:08.784Z,6.36
2022-11-13T18:31:35.368Z,6.38
2022-11-13T18:34:04.120Z,6.42
2022-11-13T18:36:34.815Z,6.43
2022-11-13T18:39:03.086Z,6.40
2022-11-13T18:41:30.243Z,6.43
2022-11-13T18:43:56.911Z,6.47
2022-11-13T18:46:23.451Z,6.44
2022-11-13T18:48:50.011Z,6.41
2022-11-13T18:51:22.716Z,6.42
2022-11-13T18:53:50.951Z,6.37
2022-11-13T18:56:20.159Z,6.18
2022-11-13T18:58:48.558Z,6.19
2022-11-13T19:01:22.328Z,6.11
2022-11-13T19:04:16.079Z,6.07
2022-11-13T19:06:38.301Z,5.95
2022-11-13T19:09:08.126Z,6.05
2022-11-13T19:11:34.618Z,5.94
2022-11-13T19:14:01.210Z,5.92
2022-11-13T19:16:33.216Z,5.89
2022-11-13T19:19:03.542Z,5.91
2022-11-13T19:21:32.031Z,5.86
2022-11-13T19:23:59.844Z,5.86
2022-11-13T19:26:26.445Z,5.86
2022-11-13T19:28:54.324Z,5.84
2022-11-13T19:31:24.033Z,5.78
2022-11-13T19:34:02.258Z,5.72
2022-11-13T19:36:31.542Z,5.71
2022-11-13T19:38:58.281Z,5.59
2022-11-13T19:41:25.951Z,5.52
2022-11-13T19:43:52.793Z,5.41
2022-11-13T19:46:20.621Z,5.39
2022-11-13T19:48:48.467Z,5.42
2022-11-13T19:51:21.251Z,5.41
2022-11-13T19:53:52.217Z,5.42
2022-11-13T19:56:21.593Z,5.40
2022-11-13T19:58:49.628Z,5.40
2022-11-13T20:01:27.475Z,5.39
2022-11-13T20:04:02.055Z,5.40
2022-11-13T20:06:29.873Z,5.42
2022-11-13T20:08:58.393Z,5.37
2022-11-13T20:11:24.966Z,5.38
2022-11-13T20:13:51.518Z,5.35
2022-11-13T20:16:21.045Z,5.33
2022-11-13T20:18:47.942Z,5.36
2022-11-13T20:21:14.458Z,5.31
2022-11-13T20:23:41.250Z,5.28
2022-11-13T20:26:12.112Z,5.23
2022-11-13T20:28:38.610Z,5.17
2022-11-13T20:31:16.438Z,5.17
2022-11-13T20:33:43.518Z,5.19
2022-11-13T20:36:10.244Z,5.16
2022-11-13T20:38:37.490Z,5.12
2022-11-13T20:41:05.409Z,5.15
2022-11-13T20:43:32.045Z,5.17
2022-11-13T20:46:06.274Z,5.20
2022-11-13T20:48:34.393Z,5.23
2022-11-13T20:51:10.953Z,5.23
2022-11-13T20:53:37.787Z,5.16
2022-11-13T20:56:04.669Z,5.17
2022-11-13T20:58:31.766Z,5.17
2022-11-13T21:01:11.060Z,5.08
2022-11-13T21:03:41.291Z,5.09
2022-11-13T21:06:10.337Z,5.03
2022-11-13T21:08:37.207Z,5.02
2022-11-13T21:11:08.709Z,5.00
2022-11-13T21:13:35.398Z,5.01
2022-11-13T21:16:09.535Z,5.04
2022-11-13T21:18:36.468Z,5.07
2022-11-13T21:21:16.506Z,5.09
2022-11-13T21:23:43.017Z,5.13
2022-11-13T21:26:10.097Z,5.13
2022-11-13T21:28:37.207Z,5.19
2022-11-13T21:31:10.194Z,5.24
2022-11-13T21:33:38.118Z,5.30
2022-11-13T21:36:12.549Z,5.36
2022-11-13T21:38:40.153Z,5.41
2022-11-13T21:41:26.838Z,5.43
2022-11-13T21:44:03.334Z,5.39
2022-11-13T21:46:37.456Z,5.42
2022-11-13T21:49:07.088Z,5.45
2022-11-13T21:51:35.694Z,5.50
2022-11-13T21:54:02.602Z,5.52
2022-11-13T21:56:30.637Z,5.54
2022-11-13T21:58:57.755Z,5.53
2022-11-13T22:01:25.456Z,5.55
2022-11-13T22:03:52.118Z,5.52
2022-11-13T22:06:20.314Z,5.54
2022-11-13T22:08:58.168Z,5.56
2022-11-13T22:11:26.616Z,5.60
2022-11-13T22:13:53.681Z,5.61
2022-11-13T22:16:21.289Z,5.58
2022-11-13T22:18:47.830Z,5.62
2022-11-13T22:21:15.450Z,5.57
2022-11-13T22:23:42.105Z,5.57
2022-11-13T22:26:11.438Z,5.56
2022-11-13T22:28:39.493Z,5.55
2022-11-13T22:31:06.972Z,5.55
2022-11-13T22:33:36.469Z,5.51
2022-11-13T22:36:08.578Z,5.51
2022-11-13T22:38:35.431Z,5.49
2022-11-13T22:41:10.619Z,5.48
2022-11-13T22:43:42.277Z,5.48
2022-11-13T22:46:12.157Z,5.46
2022-11-13T22:48:41.010Z,5.49
2022-11-13T22:51:11.488Z,5.50
2022-11-13T22:53:39.392Z,5.48
2022-11-13T22:56:11.918Z,5.46
2022-11-13T22:58:38.711Z,5.45
2022-11-13T23:01:12.845Z,5.44
2022-11-13T23:03:42.265Z,5.41
2022-11-13T23:06:10.115Z,5.40
2022-11-13T23:08:41.209Z,5.40
2022-11-13T23:11:14.192Z,5.43
2022-11-13T23:13:48.941Z,5.46
2022-11-13T23:16:15.724Z,5.44
2022-11-13T23:18:42.569Z,5.44
2022-11-13T23:21:11.361Z,5.43
2022-11-13T23:23:38.044Z,5.41
2022-11-13T23:26:06.317Z,5.45
2022-11-13T23:28:33.151Z,5.42
2022-11-13T23:30:59.693Z,5.41
2022-11-13T23:33:26.513Z,5.40
2022-11-13T23:35:53.321Z,5.37
2022-11-13T23:38:20.057Z,5.37
2022-11-13T23:40:46.547Z,5.33
2022-11-13T23:43:13.603Z,5.29
2022-11-13T23:45:40.125Z,5.30
2022-11-13T23:48:07.132Z,5.28
2022-11-13T23:50:33.707Z,5.24
2022-11-13T23:53:00.193Z,5.19
2022-11-13T23:55:26.714Z,5.19
2022-11-13T23:57:58.405Z,5.21
